sensor_id;sensor_type;location;lat;lon;timestamp;temperature;humidity
11079;DHT22;5592;49.234;7.268;2023-04-25T00:01:11;6.90;99.90
11079;DHT22;5592;49.234;7.268;2023-04-25T00:03:38;6.90;99.90
11079;DHT22;5592;49.234;7.268;2023-04-25T00:06:05;6.90;99.90
11079;DHT22;5592;49.234;7.268;2023-04-25T00:08:32;6.90;99.90
11079;DHT22;5592;49.234;7.268;2023-04-25T00:10:58;6.90;99.90
11079;DHT22;5592;49.234;7.268;2023-04-25T00:13:24;6.90;99.90
11079;DHT22;5592;49.234;7.268;2023-04-25T00:15:51;6.90;99.90
11079;DHT22;5592;49.234;7.268;2023-04-25T00:18:19;6.90;99.90
11079;DHT22;5592;49.234;7.268;2023-04-25T00:20:44;6.90;99.90
11079;DHT22;5592;49.234;7.268;2023-04-25T00:23:13;6.90;99.90
11079;DHT22;5592;49.234;7.268;2023-04-25T00:25:44;6.90;99.90
11079;DHT22;5592;49.234;7.268;2023-04-25T00:28:13;7.00;99.90
11079;DHT22;5592;49.234;7.268;2023-04-25T00:30:39;7.00;99.90
11079;DHT22;5592;49.234;7.268;2023-04-25T00:33:06;7.00;99.90
11079;DHT22;5592;49.234;7.268;2023-04-25T00:35:31;6.90;99.90
11079;DHT22;5592;49.234;7.268;2023-04-25T00:37:57;6.90;99.90
11079;DHT22;5592;49.234;7.268;2023-04-25T00:40:23;6.90;99.90
11079;DHT22;5592;49.234;7.268;2023-04-25T00:42:49;6.90;99.90
11079;DHT22;5592;49.234;7.268;2023-04-25T00:45:17;6.90;99.90
11079;DHT22;5592;49.234;7.268;2023-04-25T00:47:43;6.90;99.90
11079;DHT22;5592;49.234;7.268;2023-04-25T00:50:09;6.80;99.90
11079;DHT22;5592;49.234;7.268;2023-04-25T00:52:36;6.80;99.90
11079;DHT22;5592;49.234;7.268;2023-04-25T00:55:02;6.70;99.90
11079;DHT22;5592;49.234;7.268;2023-04-25T00:57:28;6.70;99.90
11079;DHT22;5592;49.234;7.268;2023-04-25T00:59:54;6.60;99.90
11079;DHT22;5592;49.234;7.268;2023-04-25T01:02:20;6.60;99.90
11079;DHT22;5592;49.234;7.268;2023-04-25T01:04:48;6.60;99.90
11079;DHT22;5592;49.234;7.268;2023-04-25T01:07:17;6.60;99.90
11079;DHT22;5592;49.234;7.268;2023-04-25T01:09:42;6.60;99.90
11079;DHT22;5592;49.234;7.268;2023-04-25T01:12:08;6.60;99.90
11079;DHT22;5592;49.234;7.268;2023-04-25T01:14:34;6.50;99.90
11079;DHT22;5592;49.234;7.268;2023-04-25T01:17:00;6.40;99.90
11079;DHT22;5592;49.234;7.268;2023-04-25T01:19:26;6.30;99.90
11079;DHT22;5592;49.234;7.268;2023-04-25T01:21:51;6.30;99.90
11079;DHT22;5592;49.234;7.268;2023-04-25T01:24:17;6.20;99.90
11079;DHT22;5592;49.234;7.268;2023-04-25T01:26:43;6.10;99.90
11079;DHT22;5592;49.234;7.268;2023-04-25T01:29:19;6.10;99.90
11079;DHT22;5592;49.234;7.268;2023-04-25T01:31:46;6.10;99.90
11079;DHT22;5592;49.234;7.268;2023-04-25T01:34:12;6.00;99.90
11079;DHT22;5592;49.234;7.268;2023-04-25T01:36:38;6.00;99.90
11079;DHT22;5592;49.234;7.268;2023-04-25T01:39:03;6.00;99.90
11079;DHT22;5592;49.234;7.268;2023-04-25T01:41:29;6.00;99.90
11079;DHT22;5592;49.234;7.268;2023-04-25T01:43:55;6.10;99.90
11079;DHT22;5592;49.234;7.268;2023-04-25T01:46:21;6.00;99.90
11079;DHT22;5592;49.234;7.268;2023-04-25T01:48:47;6.00;99.90
11079;DHT22;5592;49.234;7.268;2023-04-25T01:51:13;6.00;99.90
11079;DHT22;5592;49.234;7.268;2023-04-25T01:53:39;6.00;99.90
11079;DHT22;5592;49.234;7.268;2023-04-25T01:56:05;6.00;99.90
11079;DHT22;5592;49.234;7.268;2023-04-25T01:58:31;6.00;99.90
11079;DHT22;5592;49.234;7.268;2023-04-25T02:00:57;6.00;99.90
11079;DHT22;5592;49.234;7.268;2023-04-25T02:03:22;6.10;99.90
11079;DHT22;5592;49.234;7.268;2023-04-25T02:05:48;6.10;99.90
11079;DHT22;5592;49.234;7.268;2023-04-25T02:08:13;6.10;99.90
11079;DHT22;5592;49.234;7.268;2023-04-25T02:10:39;6.20;99.90
11079;DHT22;5592;49.234;7.268;2023-04-25T02:13:05;6.20;99.90
11079;DHT22;5592;49.234;7.268;2023-04-25T02:15:31;6.20;99.90
11079;DHT22;5592;49.234;7.268;2023-04-25T02:17:56;6.10;99.90
11079;DHT22;5592;49.234;7.268;2023-04-25T02:20:24;6.10;99.90
11079;DHT22;5592;49.234;7.268;2023-04-25T02:22:50;6.10;99.90
11079;DHT22;5592;49.234;7.268;2023-04-25T02:25:16;6.10;99.90
11079;DHT22;5592;49.234;7.268;2023-04-25T02:27:42;6.10;99.90
11079;DHT22;5592;49.234;7.268;2023-04-25T02:30:08;6.00;99.90
11079;DHT22;5592;49.234;7.268;2023-04-25T02:32:34;5.90;99.90
11079;DHT22;5592;49.234;7.268;2023-04-25T02:35:00;5.90;99.90
11079;DHT22;5592;49.234;7.268;2023-04-25T02:37:32;5.80;99.90
11079;DHT22;5592;49.234;7.268;2023-04-25T02:39:59;5.70;99.90
11079;DHT22;5592;49.234;7.268;2023-04-25T02:42:24;5.60;99.90
11079;DHT22;5592;49.234;7.268;2023-04-25T02:44:50;5.60;99.90
11079;DHT22;5592;49.234;7.268;2023-04-25T02:47:15;5.60;99.90
11079;DHT22;5592;49.234;7.268;2023-04-25T02:49:41;5.50;99.90
11079;DHT22;5592;49.234;7.268;2023-04-25T02:52:07;5.50;99.90
11079;DHT22;5592;49.234;7.268;2023-04-25T02:54:32;5.40;99.90
11079;DHT22;5592;49.234;7.268;2023-04-25T02:56:58;5.30;99.90
11079;DHT22;5592;49.234;7.268;2023-04-25T02:59:24;5.30;99.90
11079;DHT22;5592;49.234;7.268;2023-04-25T03:01:49;5.30;99.90
11079;DHT22;5592;49.234;7.268;2023-04-25T03:04:15;5.30;99.90
11079;DHT22;5592;49.234;7.268;2023-04-25T03:06:40;5.40;99.90
11079;DHT22;5592;49.234;7.268;2023-04-25T03:09:06;5.40;99.90
11079;DHT22;5592;49.234;7.268;2023-04-25T03:11:32;5.50;99.90
11079;DHT22;5592;49.234;7.268;2023-04-25T03:13:58;5.60;99.90
11079;DHT22;5592;49.234;7.268;2023-04-25T03:16:24;5.70;99.90
11079;DHT22;5592;49.234;7.268;2023-04-25T03:18:49;5.70;99.90
11079;DHT22;5592;49.234;7.268;2023-04-25T03:21:16;5.80;99.90
11079;DHT22;5592;49.234;7.268;2023-04-25T03:23:42;5.70;99.90
11079;DHT22;5592;49.234;7.268;2023-04-25T03:26:07;5.70;99.90
11079;DHT22;5592;49.234;7.268;2023-04-25T03:28:33;5.70;99.90
11079;DHT22;5592;49.234;7.268;2023-04-25T03:30:58;5.70;99.90
11079;DHT22;5592;49.234;7.268;2023-04-25T03:33:24;5.70;99.90
11079;DHT22;5592;49.234;7.268;2023-04-25T03:35:50;5.70;99.90
11079;DHT22;5592;49.234;7.268;2023-04-25T03:38:16;5.60;99.90
11079;DHT22;5592;49.234;7.268;2023-04-25T03:40:42;5.60;99.90
11079;DHT22;5592;49.234;7.268;2023-04-25T03:43:08;5.60;99.90
11079;DHT22;5592;49.234;7.268;2023-04-25T03:45:33;5.60;99.90
11079;DHT22;5592;49.234;7.268;2023-04-25T03:47:59;5.60;99.90
11079;DHT22;5592;49.234;7.268;2023-04-25T03:50:25;5.60;99.90
11079;DHT22;5592;49.234;7.268;2023-04-25T03:52:50;5.50;99.90
11079;DHT22;5592;49.234;7.268;2023-04-25T03:55:16;5.50;99.90
11079;DHT22;5592;49.234;7.268;2023-04-25T03:57:41;5.60;99.90
11079;DHT22;5592;49.234;7.268;2023-04-25T04:00:07;5.60;99.90
11079;DHT22;5592;49.234;7.268;2023-04-25T04:02:33;5.70;99.90
11079;DHT22;5592;49.234;7.268;2023-04-25T04:05:00;5.70;99.90
11079;DHT22;5592;49.234;7.268;2023-04-25T04:07:26;5.80;99.90
11079;DHT22;5592;49.234;7.268;2023-04-25T04:09:51;5.80;99.90
11079;DHT22;5592;49.234;7.268;2023-04-25T04:12:17;5.90;99.90
11079;DHT22;5592;49.234;7.268;2023-04-25T04:14:43;5.90;99.90
11079;DHT22;5592;49.234;7.268;2023-04-25T04:17:08;6.00;99.90
11079;DHT22;5592;49.234;7.268;2023-04-25T04:19:34;6.00;99.90
11079;DHT22;5592;49.234;7.268;2023-04-25T04:21:59;6.00;99.90
11079;DHT22;5592;49.234;7.268;2023-04-25T04:24:28;6.10;99.90
11079;DHT22;5592;49.234;7.268;2023-04-25T04:26:54;6.10;99.90
11079;DHT22;5592;49.234;7.268;2023-04-25T04:29:20;6.10;99.90
11079;DHT22;5592;49.234;7.268;2023-04-25T04:31:49;6.20;99.90
11079;DHT22;5592;49.234;7.268;2023-04-25T04:34:18;6.20;99.90
11079;DHT22;5592;49.234;7.268;2023-04-25T04:36:45;6.20;99.90
11079;DHT22;5592;49.234;7.268;2023-04-25T04:39:14;6.20;99.90
11079;DHT22;5592;49.234;7.268;2023-04-25T04:41:40;6.30;99.90
11079;DHT22;5592;49.234;7.268;2023-04-25T04:44:05;6.30;99.90
11079;DHT22;5592;49.234;7.268;2023-04-25T04:46:34;6.30;99.90
11079;DHT22;5592;49.234;7.268;2023-04-25T04:49:08;6.30;99.90
11079;DHT22;5592;49.234;7.268;2023-04-25T04:51:34;6.30;99.90
11079;DHT22;5592;49.234;7.268;2023-04-25T04:54:00;6.30;99.90
11079;DHT22;5592;49.234;7.268;2023-04-25T04:56:28;6.30;99.90
11079;DHT22;5592;49.234;7.268;2023-04-25T04:58:54;6.30;99.90
11079;DHT22;5592;49.234;7.268;2023-04-25T05:01:20;6.40;99.90
11079;DHT22;5592;49.234;7.268;2023-04-25T05:03:46;6.40;99.90
11079;DHT22;5592;49.234;7.268;2023-04-25T05:06:11;6.40;99.90
11079;DHT22;5592;49.234;7.268;2023-04-25T05:08:37;6.40;99.90
11079;DHT22;5592;49.234;7.268;2023-04-25T05:11:03;6.50;99.90
11079;DHT22;5592;49.234;7.268;2023-04-25T05:13:28;6.50;99.90
11079;DHT22;5592;49.234;7.268;2023-04-25T05:15:54;6.50;99.90
11079;DHT22;5592;49.234;7.268;2023-04-25T05:18:20;6.50;99.90
11079;DHT22;5592;49.234;7.268;2023-04-25T05:20:45;6.60;99.90
11079;DHT22;5592;49.234;7.268;2023-04-25T05:23:11;6.60;99.90
11079;DHT22;5592;49.234;7.268;2023-04-25T05:25:37;6.70;99.90
11079;DHT22;5592;49.234;7.268;2023-04-25T05:28:02;6.70;99.90
11079;DHT22;5592;49.234;7.268;2023-04-25T05:30:28;6.70;99.90
11079;DHT22;5592;49.234;7.268;2023-04-25T05:32:54;6.80;99.90
11079;DHT22;5592;49.234;7.268;2023-04-25T05:35:19;6.80;99.90
11079;DHT22;5592;49.234;7.268;2023-04-25T05:37:45;6.80;99.90
11079;DHT22;5592;49.234;7.268;2023-04-25T05:40:12;6.80;99.90
11079;DHT22;5592;49.234;7.268;2023-04-25T05:42:37;6.90;99.90
11079;DHT22;5592;49.234;7.268;2023-04-25T05:45:03;6.80;99.90
11079;DHT22;5592;49.234;7.268;2023-04-25T05:47:29;6.90;99.90
11079;DHT22;5592;49.234;7.268;2023-04-25T05:49:55;6.90;99.90
11079;DHT22;5592;49.234;7.268;2023-04-25T05:52:20;7.00;99.90
11079;DHT22;5592;49.234;7.268;2023-04-25T05:54:46;7.00;99.90
11079;DHT22;5592;49.234;7.268;2023-04-25T05:57:24;7.00;99.90
11079;DHT22;5592;49.234;7.268;2023-04-25T05:59:50;7.00;99.90
11079;DHT22;5592;49.234;7.268;2023-04-25T06:02:19;7.00;99.90
11079;DHT22;5592;49.234;7.268;2023-04-25T06:04:46;7.00;99.90
11079;DHT22;5592;49.234;7.268;2023-04-25T06:07:11;7.00;99.90
11079;DHT22;5592;49.234;7.268;2023-04-25T06:09:37;7.00;99.90
11079;DHT22;5592;49.234;7.268;2023-04-25T06:12:05;7.00;99.90
11079;DHT22;5592;49.234;7.268;2023-04-25T06:14:30;7.00;99.90
11079;DHT22;5592;49.234;7.268;2023-04-25T06:16:56;7.00;99.90
11079;DHT22;5592;49.234;7.268;2023-04-25T06:19:24;7.10;99.90
11079;DHT22;5592;49.234;7.268;2023-04-25T06:21:50;7.10;99.90
11079;DHT22;5592;49.234;7.268;2023-04-25T06:24:15;7.10;99.90
11079;DHT22;5592;49.234;7.268;2023-04-25T06:26:41;7.10;99.90
11079;DHT22;5592;49.234;7.268;2023-04-25T06:29:06;7.10;99.90
11079;DHT22;5592;49.234;7.268;2023-04-25T06:31:32;7.10;99.90
11079;DHT22;5592;49.234;7.268;2023-04-25T06:33:59;7.20;99.90
11079;DHT22;5592;49.234;7.268;2023-04-25T06:36:24;7.20;99.90
11079;DHT22;5592;49.234;7.268;2023-04-25T06:38:51;7.20;99.90
11079;DHT22;5592;49.234;7.268;2023-04-25T06:41:18;7.20;99.90
11079;DHT22;5592;49.234;7.268;2023-04-25T06:43:44;7.30;99.90
11079;DHT22;5592;49.234;7.268;2023-04-25T06:46:10;7.20;99.90
11079;DHT22;5592;49.234;7.268;2023-04-25T06:48:36;7.30;99.90
11079;DHT22;5592;49.234;7.268;2023-04-25T06:51:02;7.30;99.90
11079;DHT22;5592;49.234;7.268;2023-04-25T06:53:30;7.30;99.90
11079;DHT22;5592;49.234;7.268;2023-04-25T06:55:59;7.20;99.90
11079;DHT22;5592;49.234;7.268;2023-04-25T06:58:24;7.20;99.90
11079;DHT22;5592;49.234;7.268;2023-04-25T07:00:51;7.30;99.90
11079;DHT22;5592;49.234;7.268;2023-04-25T07:03:17;7.30;99.90
11079;DHT22;5592;49.234;7.268;2023-04-25T07:05:42;7.30;99.90
11079;DHT22;5592;49.234;7.268;2023-04-25T07:08:08;7.30;99.90
11079;DHT22;5592;49.234;7.268;2023-04-25T07:10:34;7.40;99.90
11079;DHT22;5592;49.234;7.268;2023-04-25T07:13:00;7.50;99.90
11079;DHT22;5592;49.234;7.268;2023-04-25T07:15:27;7.60;99.90
11079;DHT22;5592;49.234;7.268;2023-04-25T07:17:52;7.70;99.90
11079;DHT22;5592;49.234;7.268;2023-04-25T07:20:18;7.80;99.90
11079;DHT22;5592;49.234;7.268;2023-04-25T07:22:43;7.90;99.90
11079;DHT22;5592;49.234;7.268;2023-04-25T07:25:09;7.90;99.90
11079;DHT22;5592;49.234;7.268;2023-04-25T07:27:35;8.10;99.90
11079;DHT22;5592;49.234;7.268;2023-04-25T07:30:01;8.10;99.90
11079;DHT22;5592;49.234;7.268;2023-04-25T07:32:29;8.20;99.90
11079;DHT22;5592;49.234;7.268;2023-04-25T07:34:55;8.40;99.90
11079;DHT22;5592;49.234;7.268;2023-04-25T07:37:20;8.40;99.90
11079;DHT22;5592;49.234;7.268;2023-04-25T07:39:46;8.50;99.90
11079;DHT22;5592;49.234;7.268;2023-04-25T07:42:12;8.70;99.90
11079;DHT22;5592;49.234;7.268;2023-04-25T07:44:38;8.90;99.90
11079;DHT22;5592;49.234;7.268;2023-04-25T07:47:05;9.10;99.90
11079;DHT22;5592;49.234;7.268;2023-04-25T07:49:36;9.20;99.90
11079;DHT22;5592;49.234;7.268;2023-04-25T07:52:03;9.20;99.90
11079;DHT22;5592;49.234;7.268;2023-04-25T07:54:31;9.40;99.90
11079;DHT22;5592;49.234;7.268;2023-04-25T07:56:57;9.50;99.90
11079;DHT22;5592;49.234;7.268;2023-04-25T07:59:23;9.50;99.90
11079;DHT22;5592;49.234;7.268;2023-04-25T08:01:49;9.60;99.90
11079;DHT22;5592;49.234;7.268;2023-04-25T08:04:14;9.60;99.90
11079;DHT22;5592;49.234;7.268;2023-04-25T08:06:40;9.80;99.90
11079;DHT22;5592;49.234;7.268;2023-04-25T08:09:06;10.00;99.90
11079;DHT22;5592;49.234;7.268;2023-04-25T08:11:35;10.30;99.90
11079;DHT22;5592;49.234;7.268;2023-04-25T08:14:00;10.40;99.90
11079;DHT22;5592;49.234;7.268;2023-04-25T08:16:27;10.70;99.90
11079;DHT22;5592;49.234;7.268;2023-04-25T08:18:52;11.00;99.90
11079;DHT22;5592;49.234;7.268;2023-04-25T08:21:18;11.00;99.90
11079;DHT22;5592;49.234;7.268;2023-04-25T08:23:43;11.00;99.90
11079;DHT22;5592;49.234;7.268;2023-04-25T08:26:09;10.80;99.90
11079;DHT22;5592;49.234;7.268;2023-04-25T08:28:34;10.90;99.90
11079;DHT22;5592;49.234;7.268;2023-04-25T08:31:00;10.90;99.90
11079;DHT22;5592;49.234;7.268;2023-04-25T08:33:25;10.90;99.90
11079;DHT22;5592;49.234;7.268;2023-04-25T08:35:51;10.90;99.90
11079;DHT22;5592;49.234;7.268;2023-04-25T08:38:18;11.00;99.90
11079;DHT22;5592;49.234;7.268;2023-04-25T08:40:48;11.10;99.90
11079;DHT22;5592;49.234;7.268;2023-04-25T08:43:16;11.10;99.90
11079;DHT22;5592;49.234;7.268;2023-04-25T08:45:43;11.20;99.90
11079;DHT22;5592;49.234;7.268;2023-04-25T08:48:14;11.20;99.90
11079;DHT22;5592;49.234;7.268;2023-04-25T08:50:52;11.30;99.90
11079;DHT22;5592;49.234;7.268;2023-04-25T08:53:26;11.50;99.90
11079;DHT22;5592;49.234;7.268;2023-04-25T08:55:53;11.50;99.90
11079;DHT22;5592;49.234;7.268;2023-04-25T08:58:19;11.50;99.90
11079;DHT22;5592;49.234;7.268;2023-04-25T09:00:51;11.60;99.90
11079;DHT22;5592;49.234;7.268;2023-04-25T09:03:17;11.60;99.90
11079;DHT22;5592;49.234;7.268;2023-04-25T09:05:43;11.90;99.90
11079;DHT22;5592;49.234;7.268;2023-04-25T09:08:09;12.10;99.90
11079;DHT22;5592;49.234;7.268;2023-04-25T09:10:35;12.30;99.90
11079;DHT22;5592;49.234;7.268;2023-04-25T09:15:32;12.40;99.90
11079;DHT22;5592;49.234;7.268;2023-04-25T09:17:58;12.40;99.90
11079;DHT22;5592;49.234;7.268;2023-04-25T09:20:24;12.60;99.90
11079;DHT22;5592;49.234;7.268;2023-04-25T09:23:04;12.90;99.90
11079;DHT22;5592;49.234;7.268;2023-04-25T09:25:34;12.90;99.90
11079;DHT22;5592;49.234;7.268;2023-04-25T09:28:04;13.20;99.90
11079;DHT22;5592;49.234;7.268;2023-04-25T09:30:35;13.80;99.90
11079;DHT22;5592;49.234;7.268;2023-04-25T09:33:05;14.60;99.90
11079;DHT22;5592;49.234;7.268;2023-04-25T09:35:39;15.20;99.90
11079;DHT22;5592;49.234;7.268;2023-04-25T09:38:14;14.50;99.90
11079;DHT22;5592;49.234;7.268;2023-04-25T09:40:43;13.00;99.90
11079;DHT22;5592;49.234;7.268;2023-04-25T09:43:21;11.60;99.90
11079;DHT22;5592;49.234;7.268;2023-04-25T09:45:48;10.20;99.90
11079;DHT22;5592;49.234;7.268;2023-04-25T09:48:20;9.50;99.90
11079;DHT22;5592;49.234;7.268;2023-04-25T09:51:04;8.90;99.90
11079;DHT22;5592;49.234;7.268;2023-04-25T09:53:32;8.60;99.90
11079;DHT22;5592;49.234;7.268;2023-04-25T09:56:00;8.40;99.90
11079;DHT22;5592;49.234;7.268;2023-04-25T09:58:28;8.40;99.90
11079;DHT22;5592;49.234;7.268;2023-04-25T10:00:59;8.40;99.90
11079;DHT22;5592;49.234;7.268;2023-04-25T10:03:25;8.50;99.90
11079;DHT22;5592;49.234;7.268;2023-04-25T10:05:52;8.60;99.90
11079;DHT22;5592;49.234;7.268;2023-04-25T10:08:20;8.70;99.90
11079;DHT22;5592;49.234;7.268;2023-04-25T10:10:46;8.60;99.90
11079;DHT22;5592;49.234;7.268;2023-04-25T10:13:16;9.00;99.90
11079;DHT22;5592;49.234;7.268;2023-04-25T10:15:42;9.40;99.90
11079;DHT22;5592;49.234;7.268;2023-04-25T10:18:08;10.00;99.90
11079;DHT22;5592;49.234;7.268;2023-04-25T10:20:34;10.70;99.90
11079;DHT22;5592;49.234;7.268;2023-04-25T10:23:16;11.70;99.90
11079;DHT22;5592;49.234;7.268;2023-04-25T10:25:42;13.00;99.90
11079;DHT22;5592;49.234;7.268;2023-04-25T10:28:08;13.70;99.90
11079;DHT22;5592;49.234;7.268;2023-04-25T10:30:33;13.90;99.90
11079;DHT22;5592;49.234;7.268;2023-04-25T10:32:59;13.70;99.90
11079;DHT22;5592;49.234;7.268;2023-04-25T10:35:27;13.50;99.90
11079;DHT22;5592;49.234;7.268;2023-04-25T10:38:14;13.60;99.90
11079;DHT22;5592;49.234;7.268;2023-04-25T10:40:39;13.20;99.90
11079;DHT22;5592;49.234;7.268;2023-04-25T10:45:59;13.70;99.90
11079;DHT22;5592;49.234;7.268;2023-04-25T10:48:26;14.30;99.90
11079;DHT22;5592;49.234;7.268;2023-04-25T10:53:32;15.30;99.90
11079;DHT22;5592;49.234;7.268;2023-04-25T10:55:58;15.40;99.90
11079;DHT22;5592;49.234;7.268;2023-04-25T10:58:24;15.60;99.90
11079;DHT22;5592;49.234;7.268;2023-04-25T11:00:50;15.60;99.90
11079;DHT22;5592;49.234;7.268;2023-04-25T11:03:16;16.00;99.90
11079;DHT22;5592;49.234;7.268;2023-04-25T11:05:45;16.70;99.90
11079;DHT22;5592;49.234;7.268;2023-04-25T11:08:11;16.80;99.90
11079;DHT22;5592;49.234;7.268;2023-04-25T11:10:40;16.80;99.90
11079;DHT22;5592;49.234;7.268;2023-04-25T11:13:05;16.50;99.90
11079;DHT22;5592;49.234;7.268;2023-04-25T11:15:31;16.10;99.90
11079;DHT22;5592;49.234;7.268;2023-04-25T11:17:57;15.90;99.90
11079;DHT22;5592;49.234;7.268;2023-04-25T11:20:25;16.00;99.90
11079;DHT22;5592;49.234;7.268;2023-04-25T11:22:51;16.10;99.90
11079;DHT22;5592;49.234;7.268;2023-04-25T11:25:17;16.50;99.90
11079;DHT22;5592;49.234;7.268;2023-04-25T11:27:52;17.20;99.90
11079;DHT22;5592;49.234;7.268;2023-04-25T11:30:19;17.60;99.90
11079;DHT22;5592;49.234;7.268;2023-04-25T11:32:46;18.30;99.90
11079;DHT22;5592;49.234;7.268;2023-04-25T11:35:12;18.70;99.90
11079;DHT22;5592;49.234;7.268;2023-04-25T11:37:43;18.30;99.90
11079;DHT22;5592;49.234;7.268;2023-04-25T11:40:09;18.40;99.90
11079;DHT22;5592;49.234;7.268;2023-04-25T11:42:46;18.00;99.90
11079;DHT22;5592;49.234;7.268;2023-04-25T11:45:13;18.20;99.90
11079;DHT22;5592;49.234;7.268;2023-04-25T11:47:39;18.20;99.90
11079;DHT22;5592;49.234;7.268;2023-04-25T11:50:06;17.50;99.90
11079;DHT22;5592;49.234;7.268;2023-04-25T11:52:45;17.20;99.90
11079;DHT22;5592;49.234;7.268;2023-04-25T11:55:18;17.20;99.90
11079;DHT22;5592;49.234;7.268;2023-04-25T11:57:46;17.10;99.90
11079;DHT22;5592;49.234;7.268;2023-04-25T12:00:20;16.70;99.90
11079;DHT22;5592;49.234;7.268;2023-04-25T12:02:50;16.30;99.90
11079;DHT22;5592;49.234;7.268;2023-04-25T12:05:17;15.50;99.90
11079;DHT22;5592;49.234;7.268;2023-04-25T12:07:43;15.20;99.90
11079;DHT22;5592;49.234;7.268;2023-04-25T12:10:12;14.60;99.90
11079;DHT22;5592;49.234;7.268;2023-04-25T12:12:41;14.20;99.90
11079;DHT22;5592;49.234;7.268;2023-04-25T12:15:14;14.00;99.90
11079;DHT22;5592;49.234;7.268;2023-04-25T12:17:42;13.70;99.90
11079;DHT22;5592;49.234;7.268;2023-04-25T12:20:12;13.50;99.90
11079;DHT22;5592;49.234;7.268;2023-04-25T12:22:41;13.40;99.90
11079;DHT22;5592;49.234;7.268;2023-04-25T12:25:13;13.30;99.90
11079;DHT22;5592;49.234;7.268;2023-04-25T12:27:39;12.90;99.90
11079;DHT22;5592;49.234;7.268;2023-04-25T12:30:09;12.80;99.90
11079;DHT22;5592;49.234;7.268;2023-04-25T12:32:36;12.70;99.90
11079;DHT22;5592;49.234;7.268;2023-04-25T12:35:03;12.90;99.90
11079;DHT22;5592;49.234;7.268;2023-04-25T12:37:29;12.90;99.90
11079;DHT22;5592;49.234;7.268;2023-04-25T12:39:55;13.10;99.90
11079;DHT22;5592;49.234;7.268;2023-04-25T12:42:21;13.20;99.90
11079;DHT22;5592;49.234;7.268;2023-04-25T12:44:46;13.30;99.90
11079;DHT22;5592;49.234;7.268;2023-04-25T12:47:12;13.30;99.90
11079;DHT22;5592;49.234;7.268;2023-04-25T12:49:37;13.60;99.90
11079;DHT22;5592;49.234;7.268;2023-04-25T12:52:03;13.50;99.90
11079;DHT22;5592;49.234;7.268;2023-04-25T12:54:29;13.40;99.90
11079;DHT22;5592;49.234;7.268;2023-04-25T12:56:54;13.30;99.90
11079;DHT22;5592;49.234;7.268;2023-04-25T12:59:20;12.70;99.90
11079;DHT22;5592;49.234;7.268;2023-04-25T13:01:46;12.40;99.90
11079;DHT22;5592;49.234;7.268;2023-04-25T13:04:12;12.30;99.90
11079;DHT22;5592;49.234;7.268;2023-04-25T13:06:38;12.20;99.90
11079;DHT22;5592;49.234;7.268;2023-04-25T13:09:03;12.30;99.90
11079;DHT22;5592;49.234;7.268;2023-04-25T13:11:29;12.50;99.90
11079;DHT22;5592;49.234;7.268;2023-04-25T13:13:56;12.80;99.90
11079;DHT22;5592;49.234;7.268;2023-04-25T13:16:21;12.90;99.90
11079;DHT22;5592;49.234;7.268;2023-04-25T13:18:47;13.10;99.90
11079;DHT22;5592;49.234;7.268;2023-04-25T13:21:13;13.20;99.90
11079;DHT22;5592;49.234;7.268;2023-04-25T13:23:40;13.20;99.90
11079;DHT22;5592;49.234;7.268;2023-04-25T13:26:08;13.10;99.90
11079;DHT22;5592;49.234;7.268;2023-04-25T13:28:33;13.30;99.90
11079;DHT22;5592;49.234;7.268;2023-04-25T13:30:59;13.40;99.90
11079;DHT22;5592;49.234;7.268;2023-04-25T13:33:24;13.20;99.90
11079;DHT22;5592;49.234;7.268;2023-04-25T13:35:51;12.90;99.90
11079;DHT22;5592;49.234;7.268;2023-04-25T13:38:23;12.80;99.90
11079;DHT22;5592;49.234;7.268;2023-04-25T13:40:50;12.40;99.90
11079;DHT22;5592;49.234;7.268;2023-04-25T13:43:21;12.00;99.90
11079;DHT22;5592;49.234;7.268;2023-04-25T13:45:50;11.60;99.90
11079;DHT22;5592;49.234;7.268;2023-04-25T13:48:16;11.30;99.90
11079;DHT22;5592;49.234;7.268;2023-04-25T13:50:41;11.00;99.90
11079;DHT22;5592;49.234;7.268;2023-04-25T13:53:07;10.90;99.90
11079;DHT22;5592;49.234;7.268;2023-04-25T13:55:34;10.70;99.90
11079;DHT22;5592;49.234;7.268;2023-04-25T13:58:01;10.80;99.90
11079;DHT22;5592;49.234;7.268;2023-04-25T14:00:33;11.00;99.90
11079;DHT22;5592;49.234;7.268;2023-04-25T14:02:58;11.30;99.90
11079;DHT22;5592;49.234;7.268;2023-04-25T14:05:24;11.70;99.90
11079;DHT22;5592;49.234;7.268;2023-04-25T14:07:50;12.10;99.90
11079;DHT22;5592;49.234;7.268;2023-04-25T14:10:16;12.40;99.90
11079;DHT22;5592;49.234;7.268;2023-04-25T14:12:42;12.70;99.90
11079;DHT22;5592;49.234;7.268;2023-04-25T14:15:10;12.70;99.90
11079;DHT22;5592;49.234;7.268;2023-04-25T14:17:36;12.70;99.90
11079;DHT22;5592;49.234;7.268;2023-04-25T14:20:03;12.70;99.90
11079;DHT22;5592;49.234;7.268;2023-04-25T14:22:31;12.60;99.90
11079;DHT22;5592;49.234;7.268;2023-04-25T14:24:56;12.50;99.90
11079;DHT22;5592;49.234;7.268;2023-04-25T14:27:22;12.60;99.90
11079;DHT22;5592;49.234;7.268;2023-04-25T14:29:47;12.50;99.90
11079;DHT22;5592;49.234;7.268;2023-04-25T14:32:13;12.40;99.90
11079;DHT22;5592;49.234;7.268;2023-04-25T14:34:39;12.20;99.90
11079;DHT22;5592;49.234;7.268;2023-04-25T14:37:05;12.00;99.90
11079;DHT22;5592;49.234;7.268;2023-04-25T14:39:31;11.80;99.90
11079;DHT22;5592;49.234;7.268;2023-04-25T14:41:56;11.60;99.90
11079;DHT22;5592;49.234;7.268;2023-04-25T14:44:23;11.40;99.90
11079;DHT22;5592;49.234;7.268;2023-04-25T14:46:48;11.40;99.90
11079;DHT22;5592;49.234;7.268;2023-04-25T14:49:16;11.30;99.90
11079;DHT22;5592;49.234;7.268;2023-04-25T14:51:42;11.40;99.90
11079;DHT22;5592;49.234;7.268;2023-04-25T14:54:08;11.50;99.90
11079;DHT22;5592;49.234;7.268;2023-04-25T14:56:33;11.60;99.90
11079;DHT22;5592;49.234;7.268;2023-04-25T14:58:59;11.60;99.90
11079;DHT22;5592;49.234;7.268;2023-04-25T15:01:25;11.60;99.90
11079;DHT22;5592;49.234;7.268;2023-04-25T15:03:51;11.60;99.90
11079;DHT22;5592;49.234;7.268;2023-04-25T15:06:16;11.70;99.90
11079;DHT22;5592;49.234;7.268;2023-04-25T15:08:43;11.80;99.90
11079;DHT22;5592;49.234;7.268;2023-04-25T15:11:08;11.90;99.90
11079;DHT22;5592;49.234;7.268;2023-04-25T15:13:34;12.10;99.90
11079;DHT22;5592;49.234;7.268;2023-04-25T15:16:00;12.20;99.90
11079;DHT22;5592;49.234;7.268;2023-04-25T15:18:26;12.20;99.90
11079;DHT22;5592;49.234;7.268;2023-04-25T15:20:55;12.30;99.90
11079;DHT22;5592;49.234;7.268;2023-04-25T15:23:21;12.40;99.90
11079;DHT22;5592;49.234;7.268;2023-04-25T15:25:47;12.50;99.90
11079;DHT22;5592;49.234;7.268;2023-04-25T15:28:13;12.40;99.90
11079;DHT22;5592;49.234;7.268;2023-04-25T15:30:44;12.60;99.90
11079;DHT22;5592;49.234;7.268;2023-04-25T15:33:10;12.70;99.90
11079;DHT22;5592;49.234;7.268;2023-04-25T15:35:36;12.80;99.90
11079;DHT22;5592;49.234;7.268;2023-04-25T15:38:01;12.90;99.90
11079;DHT22;5592;49.234;7.268;2023-04-25T15:40:27;12.40;99.90
11079;DHT22;5592;49.234;7.268;2023-04-25T15:42:53;12.40;99.90
11079;DHT22;5592;49.234;7.268;2023-04-25T15:45:22;12.50;99.90
11079;DHT22;5592;49.234;7.268;2023-04-25T15:47:50;12.50;99.90
11079;DHT22;5592;49.234;7.268;2023-04-25T15:50:17;12.60;99.90
11079;DHT22;5592;49.234;7.268;2023-04-25T15:52:43;12.80;99.90
11079;DHT22;5592;49.234;7.268;2023-04-25T15:55:09;12.90;99.90
11079;DHT22;5592;49.234;7.268;2023-04-25T15:57:36;12.80;99.90
11079;DHT22;5592;49.234;7.268;2023-04-25T16:00:03;12.70;99.90